sensor_id;sensor_type;location;lat;lon;timestamp;P1;durP1;ratioP1;P2;durP2;ratioP2
7247;SDS011;3665;51.034;13.642;2022-12-07T05:48:30;6.50;;;5.30;;
7247;SDS011;3665;51.034;13.642;2022-12-07T05:54:02;7.83;;;5.23;;
7247;SDS011;3665;51.034;13.642;2022-12-07T06:00:11;6.17;;;4.77;;
7247;SDS011;3665;51.034;13.642;2022-12-07T06:05:48;7.03;;;5.03;;
7247;SDS011;3665;51.034;13.642;2022-12-07T06:22:52;5.27;;;4.23;;
7247;SDS011;3665;51.034;13.642;2022-12-07T06:27:55;6.43;;;4.73;;
7247;SDS011;3665;51.034;13.642;2022-12-07T06:33:35;6.47;;;5.33;;
7247;SDS011;3665;51.034;13.642;2022-12-07T06:39:07;5.90;;;5.13;;
7247;SDS011;3665;51.034;13.642;2022-12-07T06:43:54;6.97;;;5.30;;
7247;SDS011;3665;51.034;13.642;2022-12-07T06:48:45;8.67;;;5.87;;
7247;SDS011;3665;51.034;13.642;2022-12-07T06:53:30;5.87;;;5.10;;
7247;SDS011;3665;51.034;13.642;2022-12-07T06:58:20;5.67;;;4.90;;
7247;SDS011;3665;51.034;13.642;2022-12-07T07:03:07;6.90;;;4.60;;
7247;SDS011;3665;51.034;13.642;2022-12-07T07:07:55;7.67;;;6.73;;
7247;SDS011;3665;51.034;13.642;2022-12-07T07:12:59;6.37;;;4.67;;
7247;SDS011;3665;51.034;13.642;2022-12-07T07:17:49;5.93;;;5.33;;
7247;SDS011;3665;51.034;13.642;2022-12-07T07:22:44;6.63;;;5.33;;
7247;SDS011;3665;51.034;13.642;2022-12-07T07:27:38;5.83;;;4.93;;
7247;SDS011;3665;51.034;13.642;2022-12-07T07:32:26;6.00;;;4.90;;
7247;SDS011;3665;51.034;13.642;2022-12-07T07:37:15;6.13;;;4.83;;
7247;SDS011;3665;51.034;13.642;2022-12-07T07:42:03;6.73;;;6.00;;
7247;SDS011;3665;51.034;13.642;2022-12-07T07:46:51;10.07;;;6.80;;
7247;SDS011;3665;51.034;13.642;2022-12-07T07:51:54;8.63;;;7.33;;
7247;SDS011;3665;51.034;13.642;2022-12-07T07:56:43;9.03;;;6.90;;
7247;SDS011;3665;51.034;13.642;2022-12-07T08:01:30;9.63;;;7.77;;
7247;SDS011;3665;51.034;13.642;2022-12-07T08:06:18;10.37;;;7.97;;
7247;SDS011;3665;51.034;13.642;2022-12-07T08:11:06;11.00;;;8.10;;
7247;SDS011;3665;51.034;13.642;2022-12-07T08:15:56;10.53;;;8.73;;
7247;SDS011;3665;51.034;13.642;2022-12-07T08:20:44;10.93;;;8.73;;
7247;SDS011;3665;51.034;13.642;2022-12-07T08:25:30;12.10;;;9.47;;
7247;SDS011;3665;51.034;13.642;2022-12-07T08:30:18;11.47;;;8.50;;
7247;SDS011;3665;51.034;13.642;2022-12-07T08:35:08;12.43;;;8.83;;
7247;SDS011;3665;51.034;13.642;2022-12-07T08:45:58;12.13;;;8.07;;
7247;SDS011;3665;51.034;13.642;2022-12-07T08:51:10;9.80;;;8.23;;
7247;SDS011;3665;51.034;13.642;2022-12-07T08:56:10;11.53;;;7.57;;
7247;SDS011;3665;51.034;13.642;2022-12-07T09:00:58;8.90;;;7.33;;
7247;SDS011;3665;51.034;13.642;2022-12-07T09:05:48;11.00;;;8.10;;
7247;SDS011;3665;51.034;13.642;2022-12-07T09:10:35;9.47;;;7.30;;
7247;SDS011;3665;51.034;13.642;2022-12-07T09:15:26;10.60;;;7.00;;
7247;SDS011;3665;51.034;13.642;2022-12-07T09:20:11;8.33;;;6.53;;
7247;SDS011;3665;51.034;13.642;2022-12-07T09:25:03;8.67;;;6.97;;
7247;SDS011;3665;51.034;13.642;2022-12-07T09:30:05;10.20;;;6.20;;
7247;SDS011;3665;51.034;13.642;2022-12-07T09:34:52;8.00;;;6.30;;
7247;SDS011;3665;51.034;13.642;2022-12-07T09:39:38;8.57;;;6.57;;
7247;SDS011;3665;51.034;13.642;2022-12-07T09:44:42;8.53;;;5.50;;
7247;SDS011;3665;51.034;13.642;2022-12-07T09:49:32;9.13;;;6.37;;
7247;SDS011;3665;51.034;13.642;2022-12-07T09:54:18;7.97;;;5.33;;
7247;SDS011;3665;51.034;13.642;2022-12-07T09:59:06;6.83;;;5.40;;
7247;SDS011;3665;51.034;13.642;2022-12-07T10:03:55;7.97;;;5.70;;
7247;SDS011;3665;51.034;13.642;2022-12-07T10:14:10;7.43;;;5.37;;
7247;SDS011;3665;51.034;13.642;2022-12-07T10:19:38;6.87;;;4.93;;
7247;SDS011;3665;51.034;13.642;2022-12-07T10:24:29;8.00;;;4.43;;
7247;SDS011;3665;51.034;13.642;2022-12-07T10:29:14;6.47;;;5.20;;
7247;SDS011;3665;51.034;13.642;2022-12-07T10:34:03;6.57;;;5.87;;
7247;SDS011;3665;51.034;13.642;2022-12-07T10:38:51;7.70;;;5.60;;
7247;SDS011;3665;51.034;13.642;2022-12-07T10:44:13;8.20;;;6.37;;
7247;SDS011;3665;51.034;13.642;2022-12-07T10:54:57;8.60;;;6.00;;
7247;SDS011;3665;51.034;13.642;2022-12-07T11:00:49;9.47;;;5.27;;
7247;SDS011;3665;51.034;13.642;2022-12-07T11:24:30;7.07;;;5.47;;
7247;SDS011;3665;51.034;13.642;2022-12-07T11:30:24;5.83;;;5.00;;
7247;SDS011;3665;51.034;13.642;2022-12-07T11:36:04;6.37;;;5.77;;
7247;SDS011;3665;51.034;13.642;2022-12-07T11:42:22;9.20;;;6.20;;
7247;SDS011;3665;51.034;13.642;2022-12-07T12:00:46;10.50;;;6.47;;
7247;SDS011;3665;51.034;13.642;2022-12-07T12:06:06;7.10;;;5.87;;
7247;SDS011;3665;51.034;13.642;2022-12-07T12:11:08;9.90;;;5.80;;
7247;SDS011;3665;51.034;13.642;2022-12-07T12:23:47;8.70;;;4.63;;
7247;SDS011;3665;51.034;13.642;2022-12-07T12:29:03;5.77;;;4.00;;
7247;SDS011;3665;51.034;13.642;2022-12-07T12:35:20;4.70;;;3.80;;
7247;SDS011;3665;51.034;13.642;2022-12-07T12:40:47;5.00;;;2.87;;
7247;SDS011;3665;51.034;13.642;2022-12-07T12:51:58;4.70;;;3.20;;
7247;SDS011;3665;51.034;13.642;2022-12-07T12:57:24;6.27;;;3.97;;
7247;SDS011;3665;51.034;13.642;2022-12-07T13:02:39;5.50;;;4.27;;
7247;SDS011;3665;51.034;13.642;2022-12-07T13:08:15;7.77;;;4.70;;
7247;SDS011;3665;51.034;13.642;2022-12-07T13:19:59;8.23;;;4.50;;
7247;SDS011;3665;51.034;13.642;2022-12-07T13:26:54;8.27;;;5.00;;
7247;SDS011;3665;51.034;13.642;2022-12-07T13:38:20;8.07;;;5.27;;
7247;SDS011;3665;51.034;13.642;2022-12-07T13:43:30;9.70;;;5.60;;
7247;SDS011;3665;51.034;13.642;2022-12-07T13:48:44;6.40;;;4.27;;
7247;SDS011;3665;51.034;13.642;2022-12-07T13:53:48;5.57;;;4.27;;
7247;SDS011;3665;51.034;13.642;2022-12-07T13:58:43;7.17;;;4.53;;
7247;SDS011;3665;51.034;13.642;2022-12-07T14:03:54;8.50;;;4.67;;
7247;SDS011;3665;51.034;13.642;2022-12-07T14:14:20;7.43;;;4.33;;
7247;SDS011;3665;51.034;13.642;2022-12-07T14:19:47;6.20;;;4.30;;
7247;SDS011;3665;51.034;13.642;2022-12-07T14:25:52;6.70;;;4.80;;
7247;SDS011;3665;51.034;13.642;2022-12-07T14:30:52;5.47;;;4.40;;
7247;SDS011;3665;51.034;13.642;2022-12-07T14:59:56;2.93;;;2.50;;
7247;SDS011;3665;51.034;13.642;2022-12-07T15:22:09;3.20;;;2.20;;
7247;SDS011;3665;51.034;13.642;2022-12-07T15:28:26;5.37;;;2.37;;
7247;SDS011;3665;51.034;13.642;2022-12-07T15:33:38;2.23;;;2.00;;
7247;SDS011;3665;51.034;13.642;2022-12-07T17:05:18;3.33;;;2.40;;
7247;SDS011;3665;51.034;13.642;2022-12-07T17:22:41;7.00;;;3.23;;
